Grand Isle, Louisiana
Current Conditions -  °F | °C
As of 12:15 PM on Monday 26 Jan 2015 (Local Time) from KXPY Reporting Station
Clear Clear  
Wind Chill: 55°   Ceiling: Unl
Heat Index: 55°   Visibility: 10mi
Dew Point: 39°   Wind: 14mph
Humidity: 54%   Direction: 260°W
Pressure: 30.14"   Gusts: NA
Location:  29.24°N, 89.99°W
Report Text: KXPY 261815Z AUTO 26012KT 10SM CLR 13/04 A3014 RMK A01
Loading
Personal Weather Stations






























Interactive Weather Map New forecast layout! Learn more

10-Day Weather Forecast

Advertisements
Track Severe Weather on mobile